Haskell, New Jersey
Current Conditions -  °F | °C
As of 3:53 AM on Saturday 22 Nov 2014 (Local Time) from KCDW Reporting Station
Clear Clear  
Wind Chill: 19°   Ceiling: Unl
Heat Index: 19°   Visibility: 10mi
Dew Point: 11°   Wind: 0mph
Humidity: 71%   Direction: NA
Pressure: 30.49"   Gusts: NA
Location:  41.03°N, 74.3°W
Report Text: KCDW 220853Z AUTO 00000KT 10SM CLR M07/M12 A3049 RMK AO2 SLP331 T10721117 58007 TSNO
Loading
Personal Weather Stations






























Interactive Weather Map New forecast layout! Learn more

10-Day Weather Forecast

Advertisements
Track Severe Weather on mobile